createdAt,value
2022-12-24T00:01:20.952Z,92.30
2022-12-24T00:03:47.969Z,92.30
2022-12-24T00:06:23.971Z,92.40
2022-12-24T00:08:53.911Z,92.30
2022-12-24T00:11:21.324Z,92.40
2022-12-24T00:13:49.202Z,92.30
2022-12-24T00:16:16.061Z,92.30
2022-12-24T00:18:46.997Z,92.30
2022-12-24T00:21:17.701Z,92.30
2022-12-24T00:23:44.903Z,92.40
2022-12-24T00:26:15.541Z,92.30
2022-12-24T00:28:42.415Z,92.40
2022-12-24T00:31:14.942Z,92.40
2022-12-24T00:33:41.977Z,92.40
2022-12-24T00:36:09.776Z,92.50
2022-12-24T00:38:37.083Z,92.50
2022-12-24T00:41:05.909Z,92.50
2022-12-24T00:43:33.601Z,92.50
2022-12-24T00:46:00.480Z,92.50
2022-12-24T00:48:28.409Z,92.50
2022-12-24T00:50:55.257Z,92.60
2022-12-24T00:53:22.055Z,92.70
2022-12-24T00:55:48.967Z,92.70
2022-12-24T00:58:18.594Z,92.70
2022-12-24T01:00:47.326Z,92.70
2022-12-24T01:03:14.266Z,92.60
2022-12-24T01:05:41.117Z,92.60
2022-12-24T01:08:10.949Z,92.60
2022-12-24T01:10:37.740Z,92.60
2022-12-24T01:13:04.577Z,92.60
2022-12-24T01:15:31.579Z,92.60
2022-12-24T01:17:59.075Z,92.60
2022-12-24T01:20:31.565Z,92.60
2022-12-24T01:23:01.713Z,92.50
2022-12-24T01:25:28.544Z,92.40
2022-12-24T01:27:55.539Z,92.40
2022-12-24T01:30:22.568Z,92.40
2022-12-24T01:32:49.406Z,92.40
2022-12-24T01:35:16.304Z,92.40
2022-12-24T01:37:46.068Z,92.40
2022-12-24T01:40:36.938Z,92.40
2022-12-24T01:43:25.298Z,92.40
2022-12-24T01:45:58.566Z,92.50
2022-12-24T01:48:25.279Z,92.50
2022-12-24T01:50:57.951Z,92.50
2022-12-24T01:53:24.995Z,92.50
2022-12-24T01:55:52.542Z,92.50
2022-12-24T01:58:21.504Z,92.50
2022-12-24T02:00:51.305Z,92.40
2022-12-24T02:03:21.605Z,92.50
2022-12-24T02:05:54.062Z,92.50
2022-12-24T02:08:22.307Z,92.50
2022-12-24T02:10:50.485Z,92.50
2022-12-24T02:13:20.641Z,92.50
2022-12-24T02:16:07.254Z,92.60
2022-12-24T02:18:59.624Z,92.50
2022-12-24T02:21:29.324Z,92.50
2022-12-24T02:24:08.280Z,92.60
2022-12-24T02:26:48.517Z,92.60
2022-12-24T02:29:37.916Z,92.60
2022-12-24T02:32:21.465Z,92.70
2022-12-24T02:34:57.778Z,92.70
2022-12-24T02:37:53.317Z,92.70
2022-12-24T02:40:35.905Z,92.70
2022-12-24T02:43:09.647Z,92.80
2022-12-24T02:45:40.164Z,92.80
2022-12-24T02:48:07.936Z,92.80
2022-12-24T02:50:38.744Z,92.80
2022-12-24T02:53:06.604Z,92.70
2022-12-24T02:55:51.038Z,92.70
2022-12-24T02:58:56.752Z,92.80
2022-12-24T03:01:50.546Z,92.80
2022-12-24T03:04:39.589Z,92.90
2022-12-24T03:07:17.259Z,92.90
2022-12-24T03:09:54.118Z,93.00
2022-12-24T03:12:44.634Z,92.90
2022-12-24T03:15:15.974Z,93.00
2022-12-24T03:17:48.251Z,93.10
2022-12-24T03:20:20.926Z,93.10
2022-12-24T03:22:47.660Z,93.10
2022-12-24T03:25:14.452Z,93.10
2022-12-24T03:27:42.026Z,93.10
2022-12-24T03:30:11.880Z,93.10
2022-12-24T03:32:38.820Z,93.50
2022-12-24T03:35:09.802Z,93.10
2022-12-24T03:37:36.647Z,93.20
2022-12-24T03:40:05.130Z,93.20
2022-12-24T03:42:32.032Z,93.10
2022-12-24T03:44:58.767Z,93.10
2022-12-24T03:47:25.592Z,93.10
2022-12-24T03:49:52.833Z,93.10
2022-12-24T03:52:19.603Z,93.00
2022-12-24T03:54:46.385Z,93.00
2022-12-24T03:57:13.368Z,93.10
2022-12-24T03:59:40.283Z,93.00
2022-12-24T04:02:07.233Z,93.00
2022-12-24T04:04:36.797Z,93.00
2022-12-24T04:07:05.523Z,93.00
2022-12-24T04:09:32.317Z,93.00
2022-12-24T04:12:01.396Z,93.10
2022-12-24T04:14:28.168Z,93.10
2022-12-24T04:16:55.067Z,93.10
2022-12-24T04:19:21.896Z,93.00
2022-12-24T04:21:48.818Z,93.00
2022-12-24T04:24:15.573Z,93.00
2022-12-24T04:26:42.415Z,93.00
2022-12-24T04:29:09.279Z,93.00
2022-12-24T04:31:36.155Z,93.00
2022-12-24T04:34:02.979Z,93.00
2022-12-24T04:36:29.915Z,93.00
2022-12-24T04:38:57.041Z,93.00
2022-12-24T04:41:25.196Z,92.90
2022-12-24T04:43:55.848Z,93.00
2022-12-24T04:46:25.586Z,92.90
2022-12-24T04:48:54.425Z,93.00
2022-12-24T04:51:21.456Z,93.00
2022-12-24T04:53:51.456Z,92.90
2022-12-24T04:56:26.337Z,92.90
2022-12-24T04:58:54.194Z,92.90
2022-12-24T05:01:26.173Z,93.00
2022-12-24T05:03:53.801Z,93.00
2022-12-24T05:06:24.037Z,93.00
2022-12-24T05:08:53.381Z,93.00
2022-12-24T05:11:20.246Z,93.00
2022-12-24T05:13:48.260Z,93.00
2022-12-24T05:16:17.455Z,93.40
2022-12-24T05:18:44.429Z,93.00
2022-12-24T05:21:14.385Z,93.00
2022-12-24T05:24:00.020Z,93.00
2022-12-24T05:26:34.102Z,93.10
2022-12-24T05:29:04.054Z,93.10
2022-12-24T05:31:33.464Z,93.10
2022-12-24T05:34:01.585Z,93.10
2022-12-24T05:36:28.420Z,93.50
2022-12-24T05:38:55.311Z,93.20
2022-12-24T05:41:22.886Z,93.20
2022-12-24T05:43:49.860Z,93.30
2022-12-24T05:46:19.291Z,93.30
2022-12-24T05:48:49.891Z,93.30
2022-12-24T05:51:19.693Z,93.30
2022-12-24T05:53:47.876Z,93.30
2022-12-24T05:56:17.443Z,93.30
2022-12-24T05:58:45.045Z,93.30
2022-12-24T06:01:12.958Z,93.30
2022-12-24T06:03:40.548Z,93.40
2022-12-24T06:06:15.958Z,93.40
2022-12-24T06:08:45.838Z,93.30
2022-12-24T06:11:14.821Z,93.40
2022-12-24T06:13:42.396Z,93.40
2022-12-24T06:16:14.845Z,93.40
2022-12-24T06:18:42.281Z,93.30
2022-12-24T06:21:10.028Z,93.30
2022-12-24T06:23:39.222Z,93.30
2022-12-24T06:26:10.204Z,93.30
2022-12-24T06:28:38.348Z,93.20
2022-12-24T06:31:06.876Z,93.20
2022-12-24T06:33:34.707Z,93.20
2022-12-24T06:36:01.581Z,93.20
2022-12-24T06:38:31.177Z,93.10
2022-12-24T06:40:58.052Z,93.10
2022-12-24T06:43:25.012Z,93.10
2022-12-24T06:45:51.793Z,93.00
2022-12-24T06:48:18.546Z,93.00
2022-12-24T06:50:45.348Z,93.00
2022-12-24T06:53:12.239Z,93.10
2022-12-24T06:55:39.955Z,93.10
2022-12-24T06:58:06.928Z,93.10
2022-12-24T07:00:33.748Z,93.10
2022-12-24T07:03:00.628Z,93.10
2022-12-24T07:05:28.057Z,93.00
2022-12-24T07:07:54.980Z,93.00
2022-12-24T07:10:21.995Z,93.00
2022-12-24T07:12:49.090Z,93.00
2022-12-24T07:15:16.631Z,92.90
2022-12-24T07:17:43.963Z,92.90
2022-12-24T07:20:14.926Z,92.90
2022-12-24T07:22:42.400Z,92.90
2022-12-24T07:25:10.238Z,92.90
2022-12-24T07:27:37.100Z,92.90
2022-12-24T07:30:05.432Z,92.90
2022-12-24T07:32:35.150Z,92.90
2022-12-24T07:35:08.207Z,92.90
2022-12-24T07:37:35.245Z,92.90
2022-12-24T07:40:02.468Z,93.00
2022-12-24T07:42:29.290Z,93.30
2022-12-24T07:44:56.099Z,93.00
2022-12-24T07:47:22.941Z,93.00
2022-12-24T07:49:49.757Z,92.90
2022-12-24T07:52:16.796Z,92.90
2022-12-24T07:54:43.497Z,92.90
2022-12-24T07:57:10.350Z,92.90
2022-12-24T07:59:37.436Z,93.00
2022-12-24T08:02:04.348Z,93.00
2022-12-24T08:04:37.501Z,93.00
2022-12-24T08:07:09.210Z,93.00
2022-12-24T08:09:37.472Z,93.00
2022-12-24T08:12:04.852Z,93.00
2022-12-24T08:14:32.383Z,93.00
2022-12-24T08:16:59.167Z,93.00
2022-12-24T08:19:25.985Z,93.00
2022-12-24T08:21:52.781Z,92.90
2022-12-24T08:24:19.602Z,92.90
2022-12-24T08:26:46.393Z,93.00
2022-12-24T08:29:13.169Z,92.90
2022-12-24T08:31:40.009Z,92.90
2022-12-24T08:34:09.045Z,93.00
2022-12-24T08:36:36.078Z,93.00
2022-12-24T08:39:03.750Z,93.00
2022-12-24T08:41:33.251Z,93.00
2022-12-24T08:44:02.789Z,93.10
2022-12-24T08:46:29.648Z,93.10
2022-12-24T08:48:56.356Z,93.10
2022-12-24T08:51:23.201Z,93.10
2022-12-24T08:53:49.956Z,93.10
2022-12-24T08:56:19.547Z,93.10
2022-12-24T08:58:46.304Z,93.10
2022-12-24T09:01:16.170Z,93.10
2022-12-24T09:03:43.678Z,93.10
2022-12-24T09:06:10.865Z,93.10
2022-12-24T09:08:38.164Z,93.10
2022-12-24T09:11:06.866Z,93.10
2022-12-24T09:13:34.142Z,93.00
2022-12-24T09:16:00.972Z,93.00
2022-12-24T09:18:27.918Z,93.00
2022-12-24T09:21:07.458Z,92.90
2022-12-24T09:23:42.948Z,92.90
2022-12-24T09:26:31.517Z,92.80
2022-12-24T09:29:00.788Z,92.80
2022-12-24T09:31:28.083Z,92.90
2022-12-24T09:33:55.337Z,92.90
2022-12-24T09:36:22.208Z,92.90
2022-12-24T09:38:49.472Z,92.90
2022-12-24T09:41:45.404Z,92.80
2022-12-24T09:44:52.717Z,92.80
2022-12-24T09:47:34.222Z,92.70
2022-12-24T09:50:04.074Z,92.70
2022-12-24T09:52:40.106Z,92.80
2022-12-24T09:55:20.815Z,92.80
2022-12-24T09:57:50.248Z,92.80
2022-12-24T10:00:27.693Z,92.80
2022-12-24T10:02:57.130Z,92.80
2022-12-24T10:05:29.336Z,92.80
2022-12-24T10:08:42.253Z,92.70
2022-12-24T10:11:45.143Z,92.60
2022-12-24T10:14:42.287Z,92.50
2022-12-24T10:17:33.810Z,92.50
2022-12-24T10:20:41.010Z,92.30
2022-12-24T10:23:32.681Z,92.30
2022-12-24T10:26:17.499Z,92.20
2022-12-24T10:29:09.107Z,92.20
2022-12-24T10:31:39.719Z,92.20
2022-12-24T10:34:15.624Z,92.00
2022-12-24T10:36:42.434Z,91.90
2022-12-24T10:39:19.319Z,91.80
2022-12-24T10:41:51.660Z,91.60
2022-12-24T10:44:25.099Z,91.50
2022-12-24T10:46:51.787Z,91.50
2022-12-24T10:49:35.236Z,91.50
2022-12-24T10:52:10.924Z,91.50
2022-12-24T10:54:40.436Z,91.50
2022-12-24T10:57:25.176Z,91.60
2022-12-24T10:59:54.911Z,91.60
2022-12-24T11:02:42.520Z,91.60
2022-12-24T11:05:27.967Z,91.50
2022-12-24T11:08:14.103Z,91.40
2022-12-24T11:10:44.279Z,91.50
2022-12-24T11:13:39.125Z,91.30
2022-12-24T11:16:18.460Z,91.30
2022-12-24T11:18:54.384Z,91.20
2022-12-24T11:21:31.293Z,91.30
2022-12-24T11:24:09.497Z,91.10
2022-12-24T11:26:36.287Z,91.00
2022-12-24T11:29:19.416Z,91.10
2022-12-24T11:31:47.594Z,91.00
2022-12-24T11:34:29.975Z,90.90
2022-12-24T11:37:21.656Z,90.90
2022-12-24T11:39:54.695Z,90.90
2022-12-24T11:42:37.176Z,90.80
2022-12-24T11:45:08.630Z,90.80
2022-12-24T11:47:37.903Z,90.70
2022-12-24T11:50:36.591Z,90.70
2022-12-24T11:53:03.285Z,90.60
2022-12-24T11:55:36.603Z,90.50
2022-12-24T11:58:36.914Z,90.50
2022-12-24T12:01:23.930Z,90.30
2022-12-24T12:03:55.584Z,90.30
2022-12-24T12:06:50.745Z,90.20
2022-12-24T12:09:24.730Z,90.30
2022-12-24T12:12:05.019Z,90.20
2022-12-24T12:14:43.070Z,90.10
2022-12-24T12:17:30.395Z,90.10
2022-12-24T12:20:09.752Z,90.10
2022-12-24T12:22:59.548Z,90.00
2022-12-24T12:25:34.079Z,89.70
2022-12-24T12:28:03.464Z,89.80
2022-12-24T12:30:31.981Z,89.20
2022-12-24T12:33:41.010Z,89.40
2022-12-24T12:36:11.036Z,89.70
2022-12-24T12:38:40.805Z,89.30
2022-12-24T12:41:26.294Z,89.10
2022-12-24T12:43:59.378Z,89.20
2022-12-24T12:47:00.088Z,88.70
2022-12-24T12:49:32.536Z,88.70
2022-12-24T12:52:09.576Z,88.60
2022-12-24T12:54:51.514Z,89.00
2022-12-24T12:57:24.151Z,88.50
2022-12-24T12:59:57.180Z,88.40
2022-12-24T13:02:45.244Z,88.40
2022-12-24T13:05:24.211Z,88.40
2022-12-24T13:07:53.991Z,88.20
2022-12-24T13:10:36.324Z,88.00
2022-12-24T13:13:29.484Z,87.80
2022-12-24T13:16:13.291Z,87.80
2022-12-24T13:18:55.115Z,87.50
2022-12-24T13:21:26.309Z,87.70
2022-12-24T13:24:14.763Z,87.60
2022-12-24T13:26:43.956Z,87.50
2022-12-24T13:29:34.571Z,87.50
2022-12-24T13:32:20.132Z,87.30
2022-12-24T13:34:56.100Z,87.40
2022-12-24T13:37:34.148Z,87.40
2022-12-24T13:40:05.802Z,87.30
2022-12-24T13:42:49.815Z,87.30
2022-12-24T13:45:31.998Z,87.30
2022-12-24T13:48:14.728Z,87.00
2022-12-24T13:50:46.752Z,87.20
2022-12-24T13:53:33.880Z,87.60
2022-12-24T13:56:12.887Z,87.80
2022-12-24T13:58:46.439Z,87.10
2022-12-24T14:01:17.022Z,86.70
2022-12-24T14:03:56.959Z,86.30
2022-12-24T14:06:39.438Z,86.30
2022-12-24T14:09:23.228Z,86.20
2022-12-24T14:11:59.285Z,86.10
2022-12-24T14:14:41.038Z,86.30
2022-12-24T14:17:29.802Z,87.00
2022-12-24T14:19:58.944Z,87.10
2022-12-24T14:22:38.886Z,86.10
2022-12-24T14:25:19.033Z,86.10
2022-12-24T14:27:52.001Z,86.00
2022-12-24T14:30:23.061Z,86.10
2022-12-24T14:32:51.770Z,86.10
2022-12-24T14:35:21.672Z,86.20
2022-12-24T14:38:06.842Z,86.30
2022-12-24T14:40:38.980Z,86.20
2022-12-24T14:43:26.121Z,86.30
2022-12-24T14:46:30.783Z,86.30
2022-12-24T14:49:24.486Z,86.40
2022-12-24T14:52:38.064Z,86.50
2022-12-24T14:55:41.082Z,86.40
2022-12-24T14:58:22.003Z,86.50
2022-12-24T15:00:49.053Z,86.50
2022-12-24T15:03:18.546Z,86.60
2022-12-24T15:05:49.290Z,86.60
2022-12-24T15:08:25.977Z,86.60
2022-12-24T15:10:54.961Z,86.70
2022-12-24T15:13:24.143Z,86.80
2022-12-24T15:15:53.513Z,86.80
2022-12-24T15:18:28.563Z,86.80
2022-12-24T15:21:03.979Z,86.80
2022-12-24T15:23:37.144Z,86.80
2022-12-24T15:26:36.585Z,86.90
2022-12-24T15:29:27.809Z,86.90
2022-12-24T15:31:58.956Z,86.90
2022-12-24T15:34:43.933Z,87.10
2022-12-24T15:37:10.631Z,87.00
2022-12-24T15:39:39.283Z,87.10
2022-12-24T15:42:14.326Z,87.10
2022-12-24T15:45:01.906Z,87.20
2022-12-24T15:47:39.559Z,87.30
2022-12-24T15:50:35.367Z,87.40
2022-12-24T15:53:20.197Z,87.40
2022-12-24T15:56:00.164Z,87.50
2022-12-24T15:58:30.360Z,87.40
2022-12-24T16:01:30.360Z,87.60
2022-12-24T16:04:00.643Z,87.60
2022-12-24T16:06:28.433Z,87.80
2022-12-24T16:08:56.539Z,87.80
2022-12-24T16:11:28.545Z,87.90
2022-12-24T16:13:55.230Z,87.90
2022-12-24T16:16:37.371Z,88.00
2022-12-24T16:19:05.867Z,88.10
2022-12-24T16:21:41.555Z,88.10
2022-12-24T16:24:25.316Z,88.10
2022-12-24T16:26:52.514Z,88.20
2022-12-24T16:29:19.862Z,88.30
2022-12-24T16:31:58.476Z,88.40
2022-12-24T16:34:30.545Z,88.50
2022-12-24T16:36:58.927Z,88.60
2022-12-24T16:39:31.290Z,88.60
2022-12-24T16:42:18.893Z,88.70
2022-12-24T16:44:46.863Z,88.90
2022-12-24T16:47:25.333Z,89.00
2022-12-24T16:49:52.347Z,89.00
2022-12-24T16:52:22.490Z,89.00
2022-12-24T16:54:50.364Z,89.10
2022-12-24T16:57:17.707Z,89.20
2022-12-24T16:59:44.906Z,89.20
2022-12-24T17:02:17.672Z,89.20
2022-12-24T17:04:45.449Z,89.20
2022-12-24T17:07:13.853Z,89.30
2022-12-24T17:09:40.800Z,89.20
2022-12-24T17:12:07.894Z,89.30
2022-12-24T17:14:34.844Z,89.40
2022-12-24T17:17:01.732Z,89.40
2022-12-24T17:19:28.483Z,89.50
2022-12-24T17:21:55.273Z,89.50
2022-12-24T17:24:22.282Z,90.20
2022-12-24T17:26:49.264Z,90.30
2022-12-24T17:29:15.999Z,90.30
2022-12-24T17:31:43.074Z,90.30
2022-12-24T17:34:10.221Z,90.30
2022-12-24T17:36:36.975Z,90.40
2022-12-24T17:39:03.901Z,90.40
2022-12-24T17:41:30.704Z,90.50
2022-12-24T17:43:58.774Z,90.50
2022-12-24T17:46:28.422Z,90.50
2022-12-24T17:48:56.039Z,90.60
2022-12-24T17:51:23.647Z,90.60
2022-12-24T17:53:50.723Z,90.60
2022-12-24T17:56:17.866Z,90.70
2022-12-24T17:58:46.137Z,90.60
2022-12-24T18:01:15.456Z,90.70
2022-12-24T18:03:42.762Z,90.70
2022-12-24T18:06:14.098Z,90.70
2022-12-24T18:08:46.497Z,90.70
2022-12-24T18:11:22.101Z,90.80
2022-12-24T18:13:49.915Z,90.80
2022-12-24T18:16:40.217Z,90.90
2022-12-24T18:19:10.264Z,90.90
2022-12-24T18:21:37.275Z,90.90
2022-12-24T18:24:05.073Z,91.00
2022-12-24T18:26:33.336Z,91.00
2022-12-24T18:29:04.450Z,91.10
2022-12-24T18:31:33.644Z,91.00
2022-12-24T18:34:02.295Z,91.10
2022-12-24T18:36:29.189Z,91.10
2022-12-24T18:38:56.278Z,91.20
2022-12-24T18:41:26.005Z,91.20
2022-12-24T18:43:53.651Z,91.20
2022-12-24T18:46:23.751Z,91.30
2022-12-24T18:48:51.494Z,91.30
2022-12-24T18:51:20.080Z,91.30
2022-12-24T18:53:46.857Z,91.40
2022-12-24T18:56:18.754Z,91.40
2022-12-24T18:58:49.196Z,91.40
2022-12-24T19:01:21.606Z,91.40
2022-12-24T19:03:50.559Z,91.40
2022-12-24T19:06:17.778Z,91.50
2022-12-24T19:09:01.529Z,91.50
2022-12-24T19:11:33.164Z,91.50
2022-12-24T19:14:01.537Z,91.50
2022-12-24T19:16:30.097Z,91.60
2022-12-24T19:18:57.763Z,91.60
2022-12-24T19:21:24.812Z,91.60
2022-12-24T19:23:51.967Z,91.60
2022-12-24T19:26:19.875Z,91.70
2022-12-24T19:28:49.556Z,91.70
2022-12-24T19:31:22.129Z,91.70
2022-12-24T19:33:54.860Z,91.70
2022-12-24T19:36:24.279Z,91.80
2022-12-24T19:38:51.242Z,91.80
2022-12-24T19:41:20.247Z,91.80
2022-12-24T19:43:49.383Z,91.80
2022-12-24T19:46:18.984Z,91.90
2022-12-24T19:48:57.332Z,91.90
2022-12-24T19:51:27.291Z,91.90
2022-12-24T19:53:55.160Z,91.90
2022-12-24T19:56:29.998Z,91.90
2022-12-24T19:58:57.780Z,91.90
2022-12-24T20:01:26.821Z,91.90
2022-12-24T20:03:54.530Z,91.90
2022-12-24T20:06:25.301Z,91.90
2022-12-24T20:08:52.012Z,91.90
2022-12-24T20:11:21.020Z,92.00
2022-12-24T20:13:47.859Z,92.00
2022-12-24T20:16:22.647Z,92.40
2022-12-24T20:18:58.657Z,92.10
2022-12-24T20:21:26.374Z,92.00
2022-12-24T20:23:54.180Z,92.10
2022-12-24T20:26:23.666Z,92.10
2022-12-24T20:28:51.161Z,92.20
2022-12-24T20:31:19.500Z,92.20
2022-12-24T20:33:48.567Z,92.20
2022-12-24T20:36:18.443Z,92.20
2022-12-24T20:38:46.296Z,92.20
2022-12-24T20:41:15.705Z,92.30
2022-12-24T20:43:47.812Z,92.30
2022-12-24T20:46:20.488Z,92.30
2022-12-24T20:48:47.779Z,92.30
2022-12-24T20:51:23.365Z,92.30
2022-12-24T20:53:53.530Z,92.30
2022-12-24T20:56:20.688Z,92.30
2022-12-24T20:58:47.728Z,92.30
2022-12-24T21:01:24.771Z,92.70
2022-12-24T21:03:56.168Z,92.30
2022-12-24T21:06:24.428Z,92.40
2022-12-24T21:08:52.570Z,92.40
2022-12-24T21:11:38.535Z,92.40
2022-12-24T21:14:05.346Z,92.40
2022-12-24T21:16:34.425Z,92.50
2022-12-24T21:19:04.653Z,92.50
2022-12-24T21:21:31.859Z,92.50
2022-12-24T21:23:58.945Z,92.50
2022-12-24T21:26:25.692Z,92.60
2022-12-24T21:28:55.752Z,92.60
2022-12-24T21:31:22.645Z,92.60
2022-12-24T21:33:49.445Z,92.60
2022-12-24T21:36:17.207Z,92.60
2022-12-24T21:38:43.969Z,92.60
2022-12-24T21:41:13.597Z,92.70
2022-12-24T21:43:40.600Z,92.70
2022-12-24T21:46:13.486Z,92.70
2022-12-24T21:48:58.861Z,92.70
2022-12-24T21:51:27.002Z,92.70
2022-12-24T21:54:12.282Z,93.10
2022-12-24T21:57:00.839Z,92.80
2022-12-24T21:59:27.957Z,92.70
2022-12-24T22:01:56.116Z,92.70
2022-12-24T22:04:26.636Z,92.70
2022-12-24T22:07:15.315Z,92.80
2022-12-24T22:10:00.631Z,92.80
2022-12-24T22:12:30.795Z,92.80
2022-12-24T22:14:57.715Z,92.90
2022-12-24T22:17:25.811Z,92.80
2022-12-24T22:19:53.950Z,93.20
2022-12-24T22:22:21.697Z,92.90
2022-12-24T22:24:48.526Z,92.90
2022-12-24T22:27:15.365Z,93.00
2022-12-24T22:29:42.143Z,93.00
2022-12-24T22:32:09.099Z,93.00
2022-12-24T22:34:36.175Z,93.00
2022-12-24T22:37:03.028Z,93.00
2022-12-24T22:39:29.787Z,93.10
2022-12-24T22:41:59.046Z,93.10
2022-12-24T22:44:26.038Z,93.10
2022-12-24T22:46:53.017Z,93.10
2022-12-24T22:49:19.919Z,93.20
2022-12-24T22:51:46.771Z,93.10
2022-12-24T22:54:13.673Z,93.20
2022-12-24T22:56:41.760Z,93.50
2022-12-24T22:59:12.586Z,93.20
2022-12-24T23:01:44.502Z,93.30
2022-12-24T23:04:14.959Z,93.20
2022-12-24T23:06:43.445Z,93.30
2022-12-24T23:09:12.935Z,93.20
2022-12-24T23:11:40.453Z,93.20
2022-12-24T23:14:26.250Z,93.20
2022-12-24T23:16:53.141Z,93.30
2022-12-24T23:19:19.835Z,93.30
2022-12-24T23:21:46.544Z,93.30
2022-12-24T23:24:13.652Z,93.30
2022-12-24T23:26:40.846Z,93.30
2022-12-24T23:29:10.647Z,93.30
2022-12-24T23:31:37.839Z,93.30
2022-12-24T23:34:04.737Z,93.30
2022-12-24T23:36:31.502Z,93.30
2022-12-24T23:38:58.270Z,93.40
2022-12-24T23:41:25.514Z,93.30
2022-12-24T23:43:52.320Z,93.30
2022-12-24T23:46:20.399Z,93.40
2022-12-24T23:48:47.787Z,93.70
2022-12-24T23:51:17.768Z,93.40
2022-12-24T23:53:44.491Z,93.40
2022-12-24T23:56:12.259Z,93.30
2022-12-24T23:58:40.935Z,93.40
